Accueil
METAR-TAF:

METAR-TAF

Aéroports :

Brighton, Angleterre

Aéroport de Shoreham

latitude: 50-50N, longitude: 000-17W, altitude: 2 m

Observation

Le bulletin a été fait il y a 6 heures et 52 minutes, à 18:50 UTC
Vent 17 kt de ouest/sud-ouest
Température 18°C
Humidité 83%
Pression 1017 hPa
Visibilité 10 km ou plus
Quelques nuages à une hauteur de 900 ft
Nuages épars à une hauteur de 1700 ft

METAR: EGKA 231850Z 25017KT 9999 FEW009 SCT017 18/15 Q1017

Heure: 02:42 (01:42 UTC)

Prévision

Le bulletin a été fait il y a 11 heures et 39 minutes, à 14:03 UTC
Prévision valable du 23 à 15 UTC au 23 à 19 UTC
Vent 20 kt de ouest/sud-ouest
Visibilité 10 km ou plus
Nuages épars à une hauteur de 2500 ft
Temporairement
du 23 à 15 UTC au 23 à 18 UTC
Vent 23 kt de ouest avec des rafales jusqu'à 33 kt

TAF: EGKA 231403Z 2315/2319 24020KT 9999 SCT025 TEMPO 2315/2318 27023G33KT

Observations et prévisions météorologiques de plus de 4000 aéroports (messages METAR et TAF).

Les stations disponibles sont représentées par des disques jaunes et rouges sur la carte.

Passer la souris dessus pour voir le nom de la station.

Cliquer dessus pour voir les observations et prévisions météorologiques.

Pour changer de carte: cliquez sur les boutons verts avec une croix noire pour zoomer, sur le bouton vert avec un tiret pour effectuer un zoom arrière, ou sur les flèches vertes pour les cartes adjacentes.


METAR-TAF: